createdAt,value
2019-02-16T00:00:06.576Z,8.27
2019-02-16T00:05:11.474Z,8.23
2019-02-16T00:10:14.436Z,8.13
2019-02-16T00:15:16.753Z,8.13
2019-02-16T00:20:20.043Z,8.15
2019-02-16T00:25:22.250Z,8.20
2019-02-16T00:30:24.907Z,8.21
2019-02-16T00:35:27.070Z,8.10
2019-02-16T00:40:29.235Z,8.02
2019-02-16T00:45:32.106Z,7.98
2019-02-16T00:50:34.265Z,8.03
2019-02-16T00:55:36.478Z,8.11
2019-02-16T01:00:38.855Z,8.03
2019-02-16T01:05:42.063Z,8.05
2019-02-16T01:10:44.246Z,8.02
2019-02-16T01:15:47.069Z,8.02
2019-02-16T01:20:49.827Z,8.01
2019-02-16T01:25:52.557Z,7.90
2019-02-16T01:30:54.824Z,7.85
2019-02-16T01:35:57.655Z,7.82
2019-02-16T01:40:59.905Z,7.77
2019-02-16T01:46:02.078Z,7.72
2019-02-16T01:51:04.271Z,7.70
2019-02-16T01:56:06.892Z,7.71
2019-02-16T02:01:09.334Z,7.69
2019-02-16T02:06:12.699Z,7.65
2019-02-16T02:11:17.348Z,7.63
2019-02-16T02:16:19.531Z,7.61
2019-02-16T02:21:22.604Z,7.57
2019-02-16T02:26:25.405Z,7.55
2019-02-16T02:31:28.235Z,7.58
2019-02-16T02:36:31.020Z,7.49
2019-02-16T02:41:33.793Z,7.39
2019-02-16T02:46:36.502Z,7.32
2019-02-16T02:51:38.969Z,7.33
2019-02-16T02:56:41.146Z,7.30
2019-02-16T03:01:43.519Z,7.27
2019-02-16T03:06:46.190Z,7.21
2019-02-16T03:11:48.676Z,7.14
2019-02-16T03:16:50.861Z,6.99
2019-02-16T03:22:02.454Z,6.93
2019-02-16T03:27:55.988Z,6.90
2019-02-16T03:33:51.142Z,6.79
2019-02-16T03:39:04.714Z,6.66
2019-02-16T03:44:08.830Z,6.58
2019-02-16T03:49:11.549Z,6.49
2019-02-16T03:54:14.110Z,6.41
2019-02-16T03:59:16.901Z,6.37
2019-02-16T04:04:19.045Z,6.34
2019-02-16T04:09:21.228Z,6.30
2019-02-16T04:14:24.411Z,6.24
2019-02-16T04:19:26.871Z,6.20
2019-02-16T04:24:30.537Z,6.16
2019-02-16T04:29:33.199Z,6.17
2019-02-16T04:34:35.396Z,6.21
2019-02-16T04:39:37.611Z,6.17
2019-02-16T04:44:40.677Z,6.20
2019-02-16T04:49:43.818Z,6.21
2019-02-16T04:54:46.805Z,6.21
2019-02-16T04:59:49.914Z,6.20
2019-02-16T05:04:53.421Z,6.17
2019-02-16T05:09:56.257Z,6.16
2019-02-16T05:14:58.469Z,6.13
2019-02-16T05:20:01.758Z,6.09
2019-02-16T05:25:04.465Z,5.94
2019-02-16T05:30:07.215Z,5.86
2019-02-16T05:35:10.613Z,5.81
2019-02-16T05:40:12.854Z,5.74
2019-02-16T05:45:15.645Z,5.72
2019-02-16T05:50:18.144Z,5.72
2019-02-16T05:55:20.966Z,5.68
2019-02-16T06:00:26.048Z,5.66
2019-02-16T06:05:29.341Z,5.66
2019-02-16T06:10:32.030Z,5.64
2019-02-16T06:15:34.867Z,5.63
2019-02-16T06:20:38.357Z,5.65
2019-02-16T06:25:41.383Z,5.61
2019-02-16T06:30:44.184Z,5.59
2019-02-16T06:35:49.754Z,5.60
2019-02-16T06:40:51.962Z,5.55
2019-02-16T06:45:55.019Z,5.49
2019-02-16T06:50:58.167Z,5.53
2019-02-16T06:56:11.583Z,5.45
2019-02-16T07:01:14.076Z,5.42
2019-02-16T07:06:17.307Z,5.58
2019-02-16T07:11:19.489Z,5.76
2019-02-16T07:16:38.522Z,5.85
2019-02-16T07:21:41.180Z,5.87
2019-02-16T07:26:44.545Z,5.94
2019-02-16T07:31:48.025Z,5.99
2019-02-16T07:36:50.209Z,6.01
2019-02-16T07:41:52.714Z,6.06
2019-02-16T07:47:04.197Z,6.15
2019-02-16T07:52:29.937Z,6.25
2019-02-16T07:57:37.891Z,6.41
2019-02-16T08:02:54.949Z,6.76
2019-02-16T08:08:14.811Z,7.43
2019-02-16T08:13:36.744Z,8.03
2019-02-16T08:19:14.529Z,8.38
2019-02-16T08:24:27.694Z,8.88
2019-02-16T08:29:41.205Z,9.17
2019-02-16T08:34:58.517Z,9.45
2019-02-16T08:40:09.168Z,9.81
2019-02-16T08:45:34.253Z,10.27
2019-02-16T08:50:41.748Z,10.83
2019-02-16T08:56:00.921Z,10.92
2019-02-16T09:01:35.319Z,11.28
2019-02-16T09:07:04.017Z,11.39
2019-02-16T09:12:17.867Z,11.81
2019-02-16T09:17:42.437Z,12.43
2019-02-16T10:17:56.931Z,13.31
2019-02-16T10:23:10.229Z,13.31
2019-02-16T10:28:33.954Z,17.95
2019-02-16T10:35:50.734Z,17.95
2019-02-16T18:55:11.043Z,17.95
2019-02-16T19:00:27.133Z,17.95
2019-02-16T19:05:55.685Z,12.78
2019-02-16T19:11:08.053Z,12.61
2019-02-16T19:16:37.938Z,12.54
2019-02-16T19:22:00.162Z,12.41
2019-02-16T19:27:16.729Z,12.31
2019-02-16T19:32:31.548Z,12.15
2019-02-16T19:37:56.399Z,12.03
2019-02-16T19:43:09.513Z,11.95
2019-02-16T19:48:40.806Z,11.95
2019-02-16T19:54:01.524Z,-140.73
2019-02-16T19:59:22.277Z,-140.73
2019-02-16T20:04:45.659Z,-140.73
2019-02-16T20:10:07.368Z,-140.73
2019-02-16T20:15:28.484Z,-140.73
2019-02-16T20:20:50.323Z,-140.73
2019-02-16T20:26:00.276Z,-140.73
2019-02-16T20:31:08.114Z,-140.73
2019-02-16T20:36:34.152Z,11.50
2019-02-16T20:41:52.369Z,10.73
2019-02-16T20:47:12.747Z,10.67
2019-02-16T20:52:25.398Z,10.64
2019-02-16T20:57:51.405Z,10.53
2019-02-16T21:03:16.596Z,10.46
2019-02-16T21:08:28.794Z,10.42
2019-02-16T21:13:50.642Z,10.34
2019-02-16T21:19:11.249Z,10.23
2019-02-16T21:24:33.349Z,10.12
2019-02-16T21:29:44.548Z,10.05
2019-02-16T21:35:09.520Z,10.01
2019-02-16T21:40:34.675Z,9.90
2019-02-16T21:45:55.508Z,9.78
2019-02-16T21:51:20.536Z,9.72
2019-02-16T21:56:41.965Z,9.60
2019-02-16T22:01:54.332Z,9.47
2019-02-16T22:07:16.799Z,9.39
2019-02-16T22:12:37.927Z,9.31
2019-02-16T22:17:40.811Z,9.33
2019-02-16T22:22:43.127Z,9.33
2019-02-16T22:27:45.336Z,9.28
2019-02-16T22:32:48.080Z,9.19
2019-02-16T22:37:50.815Z,9.05
2019-02-16T22:42:53.849Z,8.85
2019-02-16T22:47:56.548Z,8.70
2019-02-16T22:52:59.868Z,8.56
2019-02-16T22:58:02.586Z,8.46
2019-02-16T23:03:06.594Z,8.39
2019-02-16T23:08:09.047Z,8.33
2019-02-16T23:13:11.563Z,8.29
2019-02-16T23:18:14.843Z,8.24
2019-02-16T23:23:17.385Z,8.22
2019-02-16T23:28:19.838Z,8.10
2019-02-16T23:33:22.730Z,7.98
2019-02-16T23:38:25.426Z,7.95
2019-02-16T23:43:29.736Z,7.90
2019-02-16T23:48:33.210Z,7.84
2019-02-16T23:53:35.700Z,7.73
2019-02-16T23:58:48.720Z,7.63
